createdAt,value
2023-03-17T00:01:55.200Z,6.15
2023-03-17T00:04:26.924Z,6.95
2023-03-17T00:06:55.170Z,6.80
2023-03-17T00:09:22.580Z,7.57
2023-03-17T00:11:50.241Z,8.30
2023-03-17T00:14:17.308Z,6.97
2023-03-17T00:16:48.464Z,7.38
2023-03-17T00:19:17.332Z,6.80
2023-03-17T00:21:45.272Z,6.95
2023-03-17T00:24:14.876Z,7.00
2023-03-17T00:26:42.685Z,6.82
2023-03-17T00:29:09.961Z,7.13
2023-03-17T00:31:38.220Z,6.80
2023-03-17T00:34:06.035Z,6.50
2023-03-17T00:36:34.366Z,5.57
2023-03-17T00:39:01.701Z,5.40
2023-03-17T00:41:29.673Z,4.25
2023-03-17T00:43:57.350Z,3.35
2023-03-17T00:46:35.865Z,6.40
2023-03-17T00:49:09.692Z,4.85
2023-03-17T00:51:36.997Z,5.75
2023-03-17T00:54:03.964Z,3.35
2023-03-17T00:56:31.114Z,3.08
2023-03-17T00:58:58.173Z,3.42
2023-03-17T01:01:25.121Z,3.25
2023-03-17T01:03:52.867Z,2.92
2023-03-17T01:06:20.426Z,2.90
2023-03-17T01:08:47.529Z,2.40
2023-03-17T01:11:20.165Z,2.78
2023-03-17T01:13:47.212Z,2.60
2023-03-17T01:16:14.282Z,2.67
2023-03-17T01:18:41.354Z,2.95
2023-03-17T01:21:08.922Z,2.30
2023-03-17T01:23:35.877Z,2.50
2023-03-17T01:26:02.565Z,2.35
2023-03-17T01:28:29.575Z,2.05
2023-03-17T01:30:56.872Z,2.65
2023-03-17T01:33:23.606Z,2.60
2023-03-17T01:35:50.948Z,2.20
2023-03-17T01:38:18.042Z,2.50
2023-03-17T01:40:49.821Z,2.60
2023-03-17T01:43:23.008Z,4.80
2023-03-17T01:46:17.302Z,2.28
2023-03-17T01:49:07.392Z,3.13
2023-03-17T01:51:57.679Z,3.25
2023-03-17T01:54:24.843Z,3.00
2023-03-17T01:56:55.273Z,2.63
2023-03-17T01:59:27.446Z,2.95
2023-03-17T02:02:00.221Z,2.80
2023-03-17T02:04:27.251Z,2.50
2023-03-17T02:06:58.250Z,2.50
2023-03-17T02:09:27.634Z,3.00
2023-03-17T02:11:55.706Z,2.63
2023-03-17T02:14:22.635Z,2.67
2023-03-17T02:16:49.872Z,2.50
2023-03-17T02:19:16.834Z,3.45
2023-03-17T02:21:47.925Z,3.45
2023-03-17T02:24:32.702Z,3.08
2023-03-17T02:27:13.639Z,3.72
2023-03-17T02:29:41.553Z,3.58
2023-03-17T02:32:10.036Z,3.78
2023-03-17T02:34:37.405Z,4.18
2023-03-17T02:37:04.973Z,4.07
2023-03-17T02:39:32.159Z,4.25
2023-03-17T02:41:59.186Z,4.80
2023-03-17T02:44:27.125Z,4.13
2023-03-17T02:46:55.313Z,3.20
2023-03-17T02:49:23.262Z,3.05
2023-03-17T02:51:50.484Z,3.17
2023-03-17T02:54:17.410Z,3.80
2023-03-17T02:56:44.168Z,3.38
2023-03-17T02:59:11.143Z,3.63
2023-03-17T03:01:39.762Z,3.00
2023-03-17T03:04:08.952Z,3.25
2023-03-17T03:06:36.783Z,2.75
2023-03-17T03:09:03.888Z,3.00
2023-03-17T03:11:30.724Z,3.22
2023-03-17T03:13:57.657Z,3.42
2023-03-17T03:16:24.537Z,3.22
2023-03-17T03:18:51.285Z,3.63
2023-03-17T03:21:18.819Z,3.70
2023-03-17T03:23:45.992Z,3.22
2023-03-17T03:26:12.921Z,3.55
2023-03-17T03:28:39.817Z,3.50
2023-03-17T03:31:07.535Z,3.30
2023-03-17T03:33:34.399Z,3.42
2023-03-17T03:36:01.551Z,3.17
2023-03-17T03:38:28.984Z,3.35
2023-03-17T03:40:55.728Z,3.05
2023-03-17T03:43:24.028Z,3.10
2023-03-17T03:45:52.188Z,2.95
2023-03-17T03:48:20.085Z,3.13
2023-03-17T03:50:46.963Z,3.10
2023-03-17T03:53:14.081Z,3.10
2023-03-17T03:55:41.224Z,3.05
2023-03-17T03:58:09.132Z,3.40
2023-03-17T04:00:35.952Z,2.75
2023-03-17T04:03:03.527Z,2.90
2023-03-17T04:05:30.381Z,3.55
2023-03-17T04:07:56.968Z,2.97
2023-03-17T04:10:23.667Z,3.10
2023-03-17T04:12:50.739Z,3.10
2023-03-17T04:15:19.701Z,3.20
2023-03-17T04:17:47.217Z,3.10
2023-03-17T04:20:15.371Z,3.10
2023-03-17T04:22:42.273Z,3.13
2023-03-17T04:25:10.941Z,3.10
2023-03-17T04:27:38.034Z,3.63
2023-03-17T04:30:05.719Z,3.80
2023-03-17T04:32:32.487Z,3.40
2023-03-17T04:34:59.339Z,3.60
2023-03-17T04:37:26.268Z,3.40
2023-03-17T04:39:53.386Z,3.28
2023-03-17T04:42:20.136Z,3.47
2023-03-17T04:44:47.129Z,3.40
2023-03-17T04:47:13.725Z,3.20
2023-03-17T04:49:40.497Z,3.20
2023-03-17T04:52:07.364Z,2.97
2023-03-17T04:54:34.172Z,4.18
2023-03-17T04:57:01.019Z,6.63
2023-03-17T04:59:27.639Z,5.65
2023-03-17T05:01:54.295Z,5.90
2023-03-17T05:04:31.176Z,4.72
2023-03-17T05:06:59.009Z,4.75
2023-03-17T05:09:27.212Z,5.05
2023-03-17T05:11:55.230Z,4.10
2023-03-17T05:14:21.845Z,3.97
2023-03-17T05:16:49.263Z,4.00
2023-03-17T05:19:16.489Z,4.97
2023-03-17T05:21:43.769Z,7.43
2023-03-17T05:24:10.647Z,5.30
2023-03-17T05:26:37.395Z,5.38
2023-03-17T05:29:04.587Z,5.70
2023-03-17T05:31:32.274Z,5.70
2023-03-17T05:33:59.134Z,5.18
2023-03-17T05:36:25.767Z,5.68
2023-03-17T05:38:52.774Z,5.45
2023-03-17T05:41:19.814Z,9.63
2023-03-17T05:43:47.035Z,7.35
2023-03-17T05:46:13.843Z,5.93
2023-03-17T05:48:40.819Z,6.13
2023-03-17T05:51:07.947Z,6.80
2023-03-17T05:53:36.205Z,7.22
2023-03-17T05:56:03.252Z,7.63
2023-03-17T05:58:30.175Z,8.55
2023-03-17T06:00:57.510Z,8.32
2023-03-17T06:03:24.256Z,7.72
2023-03-17T06:05:51.052Z,8.93
2023-03-17T06:08:17.802Z,17.85
2023-03-17T06:10:44.573Z,14.98
2023-03-17T06:13:11.716Z,13.70
2023-03-17T06:15:38.596Z,10.68
2023-03-17T06:18:05.734Z,10.43
2023-03-17T06:20:33.837Z,8.68
2023-03-17T06:23:04.879Z,5.50
2023-03-17T06:25:33.826Z,4.75
2023-03-17T06:28:02.615Z,4.53
2023-03-17T06:30:30.829Z,4.03
2023-03-17T06:32:57.554Z,3.95
2023-03-17T06:35:25.365Z,4.13
2023-03-17T06:37:52.125Z,3.88
2023-03-17T06:40:18.975Z,4.03
2023-03-17T06:42:46.019Z,4.32
2023-03-17T06:45:13.303Z,4.10
2023-03-17T06:47:40.053Z,5.00
2023-03-17T06:50:12.508Z,4.68
2023-03-17T06:52:39.765Z,3.67
2023-03-17T06:55:08.570Z,3.75
2023-03-17T06:57:36.591Z,3.60
2023-03-17T07:00:06.686Z,4.00
2023-03-17T07:02:33.859Z,3.75
2023-03-17T07:05:01.245Z,3.95
2023-03-17T07:07:28.398Z,3.40
2023-03-17T07:09:55.109Z,4.10
2023-03-17T07:12:22.271Z,4.28
2023-03-17T07:14:49.359Z,4.95
2023-03-17T07:17:16.592Z,4.32
2023-03-17T07:19:43.850Z,4.43
2023-03-17T07:22:12.439Z,3.70
2023-03-17T07:24:41.882Z,3.75
2023-03-17T07:27:09.577Z,3.60
2023-03-17T07:29:36.745Z,3.67
2023-03-17T07:32:05.403Z,3.78
2023-03-17T07:34:32.679Z,3.20
2023-03-17T07:36:59.681Z,3.63
2023-03-17T07:39:26.370Z,3.40
2023-03-17T07:41:55.481Z,3.30
2023-03-17T07:44:23.550Z,3.47
2023-03-17T07:46:53.591Z,3.60
2023-03-17T07:49:30.742Z,3.40
2023-03-17T07:52:05.814Z,3.15
2023-03-17T07:54:42.990Z,3.15
2023-03-17T07:57:16.732Z,3.30
2023-03-17T07:59:43.480Z,3.70
2023-03-17T08:02:16.656Z,3.17
2023-03-17T08:04:44.133Z,3.05
2023-03-17T08:07:11.399Z,3.53
2023-03-17T08:09:38.620Z,3.45
2023-03-17T08:12:06.384Z,2.80
2023-03-17T08:14:33.004Z,2.28
2023-03-17T08:16:59.861Z,2.40
2023-03-17T08:19:27.278Z,2.50
2023-03-17T08:21:54.237Z,2.33
2023-03-17T08:24:21.054Z,2.10
2023-03-17T08:26:49.351Z,2.55
2023-03-17T08:29:16.167Z,2.45
2023-03-17T08:31:44.678Z,2.28
2023-03-17T08:34:13.169Z,2.30
2023-03-17T08:36:39.896Z,2.40
2023-03-17T08:39:07.217Z,2.17
2023-03-17T08:41:34.041Z,1.83
2023-03-17T08:44:00.881Z,2.15
2023-03-17T08:46:33.059Z,1.90
2023-03-17T08:49:01.010Z,2.10
2023-03-17T08:51:31.248Z,2.33
2023-03-17T08:53:59.970Z,2.53
2023-03-17T08:56:27.273Z,2.20
2023-03-17T08:58:54.512Z,2.28
2023-03-17T09:01:23.294Z,2.20
2023-03-17T09:03:51.742Z,2.15
2023-03-17T09:06:18.384Z,2.10
2023-03-17T09:08:47.557Z,1.92
2023-03-17T09:11:17.192Z,2.20
2023-03-17T09:13:44.865Z,2.30
2023-03-17T09:16:11.651Z,2.10
2023-03-17T09:18:38.923Z,2.15
2023-03-17T09:21:06.662Z,2.38
2023-03-17T09:23:33.881Z,2.50
2023-03-17T09:26:02.488Z,1.92
2023-03-17T09:28:29.306Z,2.13
2023-03-17T09:31:05.455Z,2.05
2023-03-17T09:33:32.435Z,2.42
2023-03-17T09:35:59.225Z,2.40
2023-03-17T09:38:28.027Z,2.45
2023-03-17T09:40:57.432Z,2.20
2023-03-17T09:43:47.887Z,2.10
2023-03-17T09:46:41.527Z,3.10
2023-03-17T09:49:12.496Z,3.08
2023-03-17T09:51:39.685Z,3.20
2023-03-17T09:54:40.409Z,2.97
2023-03-17T10:00:01.367Z,4.20
2023-03-17T10:02:31.851Z,4.85
2023-03-17T10:05:07.160Z,4.00
2023-03-17T10:07:45.555Z,3.55
2023-03-17T10:10:33.632Z,4.45
2023-03-17T10:13:25.700Z,4.57
2023-03-17T10:16:17.725Z,3.67
2023-03-17T10:18:58.168Z,3.35
2023-03-17T10:21:32.251Z,2.80
2023-03-17T10:24:00.417Z,2.67
2023-03-17T10:26:35.345Z,2.45
2023-03-17T10:29:05.425Z,2.10
2023-03-17T10:31:34.857Z,2.20
2023-03-17T10:34:14.087Z,2.33
2023-03-17T10:36:44.513Z,2.63
2023-03-17T10:39:15.141Z,2.72
2023-03-17T10:41:55.369Z,3.00
2023-03-17T10:44:48.950Z,2.70
2023-03-17T10:47:39.742Z,2.30
2023-03-17T10:50:18.578Z,2.92
2023-03-17T10:52:49.435Z,2.78
2023-03-17T10:55:20.656Z,2.35
2023-03-17T10:57:53.773Z,1.92
2023-03-17T11:00:22.422Z,1.98
2023-03-17T11:02:59.900Z,2.28
2023-03-17T11:05:29.589Z,2.30
2023-03-17T11:08:10.926Z,1.92
2023-03-17T11:10:40.870Z,2.25
2023-03-17T11:13:08.501Z,2.00
2023-03-17T11:15:43.226Z,2.42
2023-03-17T11:18:49.517Z,2.35
2023-03-17T11:21:23.506Z,1.90
2023-03-17T11:24:21.153Z,2.20
2023-03-17T11:26:57.874Z,1.92
2023-03-17T11:29:48.689Z,1.95
2023-03-17T11:32:28.783Z,1.92
2023-03-17T11:35:34.283Z,2.10
2023-03-17T11:38:19.737Z,2.17
2023-03-17T11:41:02.192Z,2.58
2023-03-17T11:43:56.086Z,2.35
2023-03-17T11:46:30.088Z,2.08
2023-03-17T11:49:14.873Z,2.45
2023-03-17T11:52:09.001Z,2.28
2023-03-17T11:54:47.911Z,2.20
2023-03-17T11:57:28.275Z,2.00
2023-03-17T11:59:59.827Z,2.22
2023-03-17T12:02:47.820Z,2.45
2023-03-17T12:05:24.500Z,2.00
2023-03-17T12:08:12.137Z,2.47
2023-03-17T12:10:49.672Z,2.25
2023-03-17T12:13:23.806Z,1.80
2023-03-17T12:16:01.457Z,2.45
2023-03-17T12:18:34.398Z,2.00
2023-03-17T12:21:07.772Z,2.20
2023-03-17T12:23:48.248Z,1.90
2023-03-17T12:26:38.189Z,2.15
2023-03-17T12:29:47.380Z,1.77
2023-03-17T12:32:39.677Z,2.05
2023-03-17T12:35:32.333Z,1.70
2023-03-17T12:38:03.250Z,2.15
2023-03-17T12:40:43.857Z,2.17
2023-03-17T12:43:13.649Z,2.17
2023-03-17T12:45:44.601Z,2.15
2023-03-17T12:48:45.137Z,2.85
2023-03-17T12:51:33.962Z,1.90
2023-03-17T12:54:01.173Z,1.88
2023-03-17T12:56:30.438Z,2.20
2023-03-17T12:59:22.690Z,1.90
2023-03-17T13:02:25.904Z,2.10
2023-03-17T13:04:58.509Z,2.03
2023-03-17T13:07:34.467Z,2.15
2023-03-17T13:10:12.056Z,2.10
2023-03-17T13:12:44.636Z,2.10
2023-03-17T13:15:49.906Z,1.80
2023-03-17T13:21:09.451Z,1.92
2023-03-17T13:23:41.909Z,2.22
2023-03-17T13:26:12.725Z,1.85
2023-03-17T13:28:41.034Z,2.08
2023-03-17T13:31:31.363Z,1.98
2023-03-17T13:34:12.963Z,1.83
2023-03-17T13:37:02.205Z,1.80
2023-03-17T13:40:16.380Z,2.00
2023-03-17T13:42:48.887Z,1.70
2023-03-17T13:45:35.900Z,1.80
2023-03-17T13:48:35.213Z,1.70
2023-03-17T13:51:22.467Z,2.22
2023-03-17T13:53:58.388Z,2.13
2023-03-17T13:56:45.442Z,1.77
2023-03-17T13:59:13.915Z,2.30
2023-03-17T14:01:47.946Z,2.17
2023-03-17T14:04:55.996Z,1.73
2023-03-17T14:07:28.298Z,2.08
2023-03-17T14:10:05.201Z,1.73
2023-03-17T14:12:57.641Z,2.13
2023-03-17T14:15:46.760Z,1.83
2023-03-17T14:18:28.100Z,2.40
2023-03-17T14:20:58.276Z,1.90
2023-03-17T14:23:25.908Z,1.70
2023-03-17T14:25:55.994Z,1.83
2023-03-17T14:28:28.810Z,1.80
2023-03-17T14:31:04.525Z,2.00
2023-03-17T14:33:34.687Z,1.98
2023-03-17T14:36:03.341Z,1.73
2023-03-17T14:38:33.387Z,2.10
2023-03-17T14:41:20.455Z,1.75
2023-03-17T14:43:47.596Z,1.65
2023-03-17T14:46:29.397Z,2.00
2023-03-17T14:49:16.236Z,1.80
2023-03-17T14:51:43.649Z,1.90
2023-03-17T14:54:14.640Z,2.00
2023-03-17T14:56:47.822Z,1.85
2023-03-17T14:59:23.649Z,2.10
2023-03-17T15:01:55.668Z,2.08
2023-03-17T15:04:28.712Z,2.00
2023-03-17T15:07:04.678Z,2.20
2023-03-17T15:09:36.605Z,1.90
2023-03-17T15:12:19.373Z,1.92
2023-03-17T15:14:46.820Z,2.22
2023-03-17T15:17:19.166Z,2.38
2023-03-17T15:19:49.539Z,1.90
2023-03-17T15:22:34.599Z,2.53
2023-03-17T15:25:16.923Z,1.92
2023-03-17T15:27:44.734Z,1.95
2023-03-17T15:30:12.783Z,2.20
2023-03-17T15:32:40.284Z,2.50
2023-03-17T15:35:08.198Z,2.22
2023-03-17T15:37:35.879Z,2.47
2023-03-17T15:40:05.979Z,2.08
2023-03-17T15:42:35.837Z,2.20
2023-03-17T15:45:03.857Z,2.40
2023-03-17T15:47:37.185Z,1.98
2023-03-17T15:50:17.376Z,2.33
2023-03-17T15:52:45.991Z,2.15
2023-03-17T15:55:22.522Z,2.47
2023-03-17T15:57:56.695Z,2.40
2023-03-17T16:02:57.758Z,2.40
2023-03-17T16:05:27.773Z,2.03
2023-03-17T16:07:54.855Z,2.10
2023-03-17T16:10:27.803Z,2.70
2023-03-17T16:12:55.018Z,2.70
2023-03-17T16:15:24.076Z,2.70
2023-03-17T16:18:04.464Z,2.42
2023-03-17T16:20:32.152Z,5.75
2023-03-17T16:23:06.605Z,4.82
2023-03-17T16:28:05.273Z,3.65
2023-03-17T16:30:34.694Z,2.60
2023-03-17T16:33:32.513Z,2.78
2023-03-17T16:36:01.345Z,2.67
2023-03-17T16:38:31.905Z,2.58
2023-03-17T16:41:07.705Z,2.67
2023-03-17T16:43:39.638Z,2.40
2023-03-17T16:46:07.289Z,2.55
2023-03-17T16:48:34.802Z,2.33
2023-03-17T16:51:01.633Z,2.78
2023-03-17T16:53:28.375Z,2.55
2023-03-17T16:55:55.631Z,2.50
2023-03-17T16:58:41.698Z,2.70
2023-03-17T17:01:25.031Z,2.75
2023-03-17T17:03:52.564Z,3.40
2023-03-17T17:06:21.039Z,2.60
2023-03-17T17:08:49.327Z,2.50
2023-03-17T17:11:17.795Z,2.55
2023-03-17T17:13:46.754Z,3.42
2023-03-17T17:16:25.947Z,3.70
2023-03-17T17:18:53.039Z,3.20
2023-03-17T17:21:19.748Z,3.92
2023-03-17T17:23:46.722Z,4.20
2023-03-17T17:26:13.380Z,4.10
2023-03-17T17:28:40.448Z,3.90
2023-03-17T17:31:11.311Z,3.75
2023-03-17T17:33:38.880Z,4.20
2023-03-17T17:36:11.733Z,4.47
2023-03-17T17:38:38.712Z,4.30
2023-03-17T17:41:09.101Z,4.30
2023-03-17T17:43:36.039Z,4.35
2023-03-17T17:46:03.123Z,4.00
2023-03-17T17:48:29.831Z,4.57
2023-03-17T17:50:56.941Z,3.90
2023-03-17T17:53:23.821Z,3.95
2023-03-17T17:55:51.886Z,4.07
2023-03-17T17:58:22.555Z,3.80
2023-03-17T18:00:49.933Z,3.60
2023-03-17T18:03:17.025Z,3.80
2023-03-17T18:05:44.469Z,3.95
2023-03-17T18:08:14.253Z,3.97
2023-03-17T18:10:41.390Z,3.58
2023-03-17T18:13:08.391Z,3.90
2023-03-17T18:15:35.550Z,3.25
2023-03-17T18:18:02.228Z,3.55
2023-03-17T18:20:30.297Z,3.78
2023-03-17T18:22:59.887Z,4.60
2023-03-17T18:25:29.403Z,3.80
2023-03-17T18:27:57.704Z,4.55
2023-03-17T18:30:27.444Z,6.18
2023-03-17T18:32:59.536Z,4.80
2023-03-17T18:35:28.577Z,4.25
2023-03-17T18:37:57.537Z,3.90
2023-03-17T18:40:25.670Z,3.10
2023-03-17T18:42:52.761Z,4.30
2023-03-17T18:45:19.555Z,4.82
2023-03-17T18:47:46.444Z,4.50
2023-03-17T18:50:15.630Z,5.25
2023-03-17T18:52:43.743Z,6.10
2023-03-17T18:55:12.149Z,6.25
2023-03-17T18:57:39.354Z,5.82
2023-03-17T19:00:08.767Z,7.70
2023-03-17T19:02:36.136Z,8.05
2023-03-17T19:05:03.396Z,9.48
2023-03-17T19:07:30.067Z,9.40
2023-03-17T19:09:57.261Z,8.63
2023-03-17T19:12:24.085Z,9.57
2023-03-17T19:14:50.731Z,8.50
2023-03-17T19:17:17.385Z,10.57
2023-03-17T19:19:44.366Z,12.40
2023-03-17T19:22:11.163Z,10.10
2023-03-17T19:24:38.179Z,10.10
2023-03-17T19:27:05.682Z,9.18
2023-03-17T19:29:33.419Z,8.60
2023-03-17T19:32:00.300Z,10.23
2023-03-17T19:34:27.461Z,10.25
2023-03-17T19:36:54.227Z,9.85
2023-03-17T19:39:21.103Z,11.02
2023-03-17T19:41:50.990Z,11.15
2023-03-17T19:44:17.620Z,10.55
2023-03-17T19:46:44.420Z,10.60
2023-03-17T19:49:11.605Z,11.43
2023-03-17T19:51:38.180Z,12.65
2023-03-17T19:54:05.440Z,13.60
2023-03-17T19:56:32.487Z,13.10
2023-03-17T19:58:59.453Z,11.35
2023-03-17T20:01:26.890Z,13.38
2023-03-17T20:03:53.758Z,11.75
2023-03-17T20:06:20.693Z,11.40
2023-03-17T20:08:48.056Z,11.27
2023-03-17T20:11:15.189Z,11.95
2023-03-17T20:13:41.845Z,11.70
2023-03-17T20:16:09.492Z,12.60
2023-03-17T20:18:36.674Z,11.40
2023-03-17T20:21:05.843Z,13.25
2023-03-17T20:23:33.260Z,13.23
2023-03-17T20:26:00.051Z,12.65
2023-03-17T20:28:30.071Z,13.75
2023-03-17T20:31:02.950Z,12.75
2023-03-17T20:33:29.971Z,11.98
2023-03-17T20:35:56.678Z,11.02
2023-03-17T20:38:24.039Z,11.95
2023-03-17T20:40:50.733Z,11.13
2023-03-17T20:43:18.199Z,10.40
2023-03-17T20:45:45.437Z,14.73
2023-03-17T20:48:12.198Z,12.40
2023-03-17T20:50:40.106Z,11.23
2023-03-17T20:53:07.626Z,10.07
2023-03-17T20:55:34.468Z,9.25
2023-03-17T20:58:01.864Z,9.70
2023-03-17T21:00:30.345Z,10.05
2023-03-17T21:02:57.882Z,9.95
2023-03-17T21:05:27.738Z,9.63
2023-03-17T21:07:57.943Z,11.00
2023-03-17T21:10:24.612Z,20.05
2023-03-17T21:12:51.196Z,19.20
2023-03-17T21:15:18.531Z,14.88
2023-03-17T21:17:45.204Z,15.13
2023-03-17T21:20:12.789Z,15.45
2023-03-17T21:22:40.299Z,16.15
2023-03-17T21:25:09.022Z,15.18
2023-03-17T21:27:40.319Z,13.85
2023-03-17T21:30:12.164Z,14.48
2023-03-17T21:32:39.983Z,14.02
2023-03-17T21:35:08.060Z,13.43
2023-03-17T21:37:35.683Z,10.27
2023-03-17T21:40:02.515Z,9.60
2023-03-17T21:42:29.246Z,9.00
2023-03-17T21:44:56.380Z,8.25
2023-03-17T21:47:23.069Z,7.95
2023-03-17T21:49:49.816Z,10.07
2023-03-17T21:52:16.872Z,8.18
2023-03-17T21:54:43.586Z,7.47
2023-03-17T21:57:12.145Z,7.60
2023-03-17T21:59:40.165Z,8.10
2023-03-17T22:02:06.839Z,8.35
2023-03-17T22:04:33.488Z,10.07
2023-03-17T22:07:00.352Z,9.75
2023-03-17T22:09:26.950Z,9.18
2023-03-17T22:11:53.678Z,8.38
2023-03-17T22:14:20.924Z,8.73
2023-03-17T22:16:50.981Z,8.38
2023-03-17T22:19:21.014Z,7.82
2023-03-17T22:21:48.378Z,7.28
2023-03-17T22:24:15.813Z,5.68
2023-03-17T22:26:42.504Z,6.45
2023-03-17T22:29:09.347Z,7.35
2023-03-17T22:31:36.324Z,5.90
2023-03-17T22:34:03.439Z,5.88
2023-03-17T22:36:30.921Z,5.05
2023-03-17T22:38:58.402Z,5.22
2023-03-17T22:41:28.446Z,6.07
2023-03-17T22:43:55.263Z,5.93
2023-03-17T22:46:22.266Z,5.07
2023-03-17T22:48:49.296Z,4.65
2023-03-17T22:51:19.761Z,4.40
2023-03-17T22:53:47.233Z,4.85
2023-03-17T22:56:15.719Z,4.65
2023-03-17T22:58:43.048Z,4.82
2023-03-17T23:01:12.373Z,4.53
2023-03-17T23:03:40.088Z,4.15
2023-03-17T23:06:08.038Z,4.65
2023-03-17T23:08:37.496Z,4.68
2023-03-17T23:11:10.912Z,4.78
2023-03-17T23:13:38.332Z,4.30
2023-03-17T23:16:06.360Z,4.78
2023-03-17T23:18:33.470Z,4.72
2023-03-17T23:21:00.692Z,4.75
2023-03-17T23:23:27.362Z,4.95
2023-03-17T23:25:54.407Z,5.32
2023-03-17T23:28:21.153Z,5.15
2023-03-17T23:30:47.918Z,5.15
2023-03-17T23:33:17.549Z,5.40
2023-03-17T23:35:44.730Z,5.18
2023-03-17T23:38:11.362Z,4.90
2023-03-17T23:40:38.971Z,4.60
2023-03-17T23:43:05.651Z,5.53
2023-03-17T23:45:34.283Z,5.35
2023-03-17T23:48:01.531Z,5.07
2023-03-17T23:50:28.109Z,4.85
2023-03-17T23:52:54.733Z,5.30
2023-03-17T23:55:21.806Z,5.25
2023-03-17T23:57:49.375Z,5.65
